createdAt,value
2022-12-18T00:01:33.064Z,101899.75
2022-12-18T00:04:54.974Z,101909.22
2022-12-18T00:08:09.926Z,101913.88
2022-12-18T00:11:27.946Z,101916.41
2022-12-18T00:14:29.697Z,101932.16
2022-12-18T00:17:44.038Z,101945.19
2022-12-18T00:20:45.849Z,101937.16
2022-12-18T00:24:01.011Z,101938.31
2022-12-18T00:27:09.936Z,101944.44
2022-12-18T00:30:24.933Z,101949.75
2022-12-18T00:33:26.725Z,101953.53
2022-12-18T00:36:42.958Z,101949.44
2022-12-18T00:39:44.753Z,101963.88
2022-12-18T00:42:59.933Z,101977.09
2022-12-18T00:46:01.994Z,101973.78
2022-12-18T00:49:21.065Z,101970.00
2022-12-18T00:52:22.961Z,101978.22
2022-12-18T00:55:39.069Z,101969.66
2022-12-18T00:58:47.591Z,101986.72
2022-12-18T01:02:02.074Z,101985.56
2022-12-18T01:05:17.430Z,101997.88
2022-12-18T01:08:31.989Z,102004.66
2022-12-18T01:11:33.876Z,102010.75
2022-12-18T01:14:48.958Z,102013.37
2022-12-18T01:18:00.120Z,102013.56
2022-12-18T01:21:10.230Z,102013.44
2022-12-18T01:24:24.964Z,102030.50
2022-12-18T01:27:41.969Z,102018.91
2022-12-18T01:30:51.094Z,102019.59
2022-12-18T01:34:00.938Z,102025.78
2022-12-18T01:37:09.726Z,102034.44
2022-12-18T01:40:17.984Z,102030.09
2022-12-18T01:43:46.477Z,102027.84
2022-12-18T01:46:55.025Z,102039.00
2022-12-18T01:50:22.082Z,102039.19
2022-12-18T01:53:30.778Z,102037.41
2022-12-18T01:56:45.998Z,102052.22
2022-12-18T01:59:53.088Z,102042.72
2022-12-18T02:03:08.056Z,102055.25
2022-12-18T02:06:30.373Z,102063.22
2022-12-18T02:09:58.073Z,102058.81
2022-12-18T02:13:23.978Z,102061.22
2022-12-18T02:16:39.773Z,102062.00
2022-12-18T02:20:16.037Z,102075.56
2022-12-18T02:23:57.758Z,102073.78
2022-12-18T02:27:15.005Z,102070.56
2022-12-18T02:30:25.087Z,102074.81
2022-12-18T02:33:37.100Z,102078.97
2022-12-18T02:36:50.001Z,102085.34
2022-12-18T02:40:07.983Z,102094.22
2022-12-18T02:43:13.602Z,102093.69
2022-12-18T02:46:39.010Z,102100.06
2022-12-18T02:50:27.057Z,102098.88
2022-12-18T02:53:53.053Z,102106.84
2022-12-18T02:57:05.057Z,102105.06
2022-12-18T03:00:43.038Z,102117.19
2022-12-18T03:03:56.278Z,102122.56
2022-12-18T03:07:26.065Z,102122.50
2022-12-18T03:10:40.226Z,102135.78
2022-12-18T03:14:00.023Z,102132.41
2022-12-18T03:17:14.629Z,102132.38
2022-12-18T03:20:28.069Z,102135.78
2022-12-18T03:23:50.027Z,102131.19
2022-12-18T03:27:02.053Z,102137.25
2022-12-18T03:30:13.485Z,102143.44
2022-12-18T03:33:29.058Z,102153.09
2022-12-18T03:36:37.698Z,102154.84
2022-12-18T03:39:46.017Z,102162.81
2022-12-18T03:43:04.326Z,102169.78
2022-12-18T03:46:31.167Z,102175.31
2022-12-18T03:49:52.903Z,102177.84
2022-12-18T03:53:11.025Z,102184.78
2022-12-18T03:56:28.058Z,102176.72
2022-12-18T03:59:38.001Z,102177.16
2022-12-18T04:02:59.122Z,102176.25
2022-12-18T04:06:02.705Z,102177.59
2022-12-18T04:09:18.085Z,102191.62
2022-12-18T04:12:19.955Z,102190.63
2022-12-18T04:15:35.114Z,102194.94
2022-12-18T04:18:37.393Z,102186.19
2022-12-18T04:21:52.079Z,102182.59
2022-12-18T04:25:00.011Z,102190.38
2022-12-18T04:28:08.890Z,102192.97
2022-12-18T04:31:17.078Z,102191.19
2022-12-18T04:34:25.726Z,102197.34
2022-12-18T04:37:34.125Z,102193.00
2022-12-18T04:40:49.053Z,102202.97
2022-12-18T04:43:50.897Z,102206.53
2022-12-18T04:47:06.066Z,102213.88
2022-12-18T04:50:15.102Z,102224.53
2022-12-18T04:53:23.605Z,102225.69
2022-12-18T04:56:32.033Z,102235.31
2022-12-18T04:59:40.677Z,102233.37
2022-12-18T05:02:49.213Z,102241.62
2022-12-18T05:06:13.129Z,102244.13
2022-12-18T05:09:15.004Z,102238.03
2022-12-18T05:12:32.051Z,102251.34
2022-12-18T05:15:34.443Z,102246.09
2022-12-18T05:18:50.074Z,102246.19
2022-12-18T05:21:58.750Z,102252.22
2022-12-18T05:25:13.074Z,102251.78
2022-12-18T05:28:21.138Z,102252.00
2022-12-18T05:31:39.636Z,102254.38
2022-12-18T05:34:41.778Z,102265.50
2022-12-18T05:37:56.131Z,102269.56
2022-12-18T05:40:58.565Z,102270.41
2022-12-18T05:44:13.066Z,102277.66
2022-12-18T05:47:21.050Z,102259.16
2022-12-18T05:50:29.746Z,102277.37
2022-12-18T05:53:38.353Z,102285.72
2022-12-18T05:56:48.750Z,102294.44
2022-12-18T05:59:57.075Z,102290.91
2022-12-18T06:03:05.839Z,102298.09
2022-12-18T06:06:25.090Z,102300.06
2022-12-18T06:09:33.783Z,102303.53
2022-12-18T06:12:48.053Z,102309.66
2022-12-18T06:15:56.646Z,102307.00
2022-12-18T06:19:13.085Z,102300.06
2022-12-18T06:22:21.833Z,102306.19
2022-12-18T06:25:30.109Z,102308.88
2022-12-18T06:28:46.130Z,102314.13
2022-12-18T06:31:54.184Z,102320.22
2022-12-18T06:35:02.818Z,102328.13
2022-12-18T06:38:17.134Z,102334.19
2022-12-18T06:41:21.219Z,102337.63
2022-12-18T06:44:36.116Z,102341.56
2022-12-18T06:47:44.140Z,102355.75
2022-12-18T06:50:59.120Z,102365.47
2022-12-18T06:54:07.101Z,102360.09
2022-12-18T06:57:22.086Z,102359.09
2022-12-18T07:00:23.873Z,102363.66
2022-12-18T07:03:40.607Z,102378.09
2022-12-18T07:06:56.122Z,102384.06
2022-12-18T07:10:06.504Z,102387.56
2022-12-18T07:13:15.453Z,102384.84
2022-12-18T07:16:25.672Z,102390.91
2022-12-18T07:19:41.135Z,102395.87
2022-12-18T07:22:54.730Z,102405.63
2022-12-18T07:26:06.161Z,102414.56
2022-12-18T07:29:21.142Z,102414.72
2022-12-18T07:32:31.236Z,102421.66
2022-12-18T07:35:41.118Z,102439.09
2022-12-18T07:38:57.144Z,102440.22
2022-12-18T07:41:59.030Z,102439.06
2022-12-18T07:45:15.223Z,102444.09
2022-12-18T07:48:23.843Z,102447.47
2022-12-18T07:51:32.122Z,102426.47
2022-12-18T07:54:41.037Z,102452.47
2022-12-18T07:57:51.860Z,102455.91
2022-12-18T08:01:07.775Z,102459.22
2022-12-18T08:04:22.175Z,102467.41
2022-12-18T08:07:44.130Z,102471.47
2022-12-18T08:10:47.179Z,102482.31
2022-12-18T08:14:03.239Z,102484.91
2022-12-18T08:17:05.041Z,102489.97
2022-12-18T08:20:21.172Z,102485.50
2022-12-18T08:23:42.064Z,102488.66
2022-12-18T08:27:06.785Z,102495.25
2022-12-18T08:30:26.305Z,102490.53
2022-12-18T08:33:28.308Z,102500.25
2022-12-18T08:36:43.109Z,102499.19
2022-12-18T08:39:45.153Z,102495.72
2022-12-18T08:43:00.131Z,102505.00
2022-12-18T08:46:01.963Z,102498.63
2022-12-18T08:49:18.254Z,102500.50
2022-12-18T08:52:20.003Z,102505.66
2022-12-18T08:55:35.134Z,102496.56
2022-12-18T08:58:36.991Z,102514.00
2022-12-18T09:01:53.201Z,102513.88
2022-12-18T09:05:15.152Z,102519.94
2022-12-18T09:08:30.268Z,102528.88
2022-12-18T09:11:39.059Z,102528.69
2022-12-18T09:14:47.182Z,102533.03
2022-12-18T09:18:02.159Z,102527.78
2022-12-18T09:21:20.469Z,102528.94
2022-12-18T09:24:36.197Z,102539.00
2022-12-18T09:27:38.114Z,102528.03
2022-12-18T09:30:56.416Z,102524.66
2022-12-18T09:34:05.293Z,102525.03
2022-12-18T09:37:17.182Z,102531.06
2022-12-18T09:40:28.214Z,102527.25
2022-12-18T09:43:43.426Z,102516.75
2022-12-18T09:46:57.154Z,102528.37
2022-12-18T09:50:34.250Z,102530.09
2022-12-18T09:53:58.202Z,102531.50
2022-12-18T09:57:13.234Z,102536.81
2022-12-18T10:00:20.979Z,102534.87
2022-12-18T10:03:39.282Z,102532.00
2022-12-18T10:07:23.413Z,102531.34
2022-12-18T10:10:42.534Z,102526.34
2022-12-18T10:14:01.174Z,102534.47
2022-12-18T10:17:27.516Z,102525.91
2022-12-18T10:20:52.200Z,102528.00
2022-12-18T10:24:32.242Z,102522.41
2022-12-18T10:27:41.491Z,102522.22
2022-12-18T10:30:56.259Z,102516.81
2022-12-18T10:34:04.243Z,102518.91
2022-12-18T10:37:25.224Z,102515.63
2022-12-18T10:40:34.217Z,102514.66
2022-12-18T10:43:42.742Z,102513.25
2022-12-18T10:46:54.505Z,102513.75
2022-12-18T10:50:04.313Z,102512.94
2022-12-18T10:53:13.192Z,102508.22
2022-12-18T10:56:22.351Z,102511.41
2022-12-18T10:59:31.214Z,102519.31
2022-12-18T11:02:46.430Z,102508.94
2022-12-18T11:06:07.783Z,102509.62
2022-12-18T11:09:29.236Z,102503.34
2022-12-18T11:12:37.256Z,102507.03
2022-12-18T11:15:46.439Z,102497.53
2022-12-18T11:18:55.401Z,102501.59
2022-12-18T11:22:21.550Z,102503.25
2022-12-18T11:25:37.241Z,102494.47
2022-12-18T11:29:14.459Z,102495.75
2022-12-18T11:32:38.114Z,102494.91
2022-12-18T11:36:12.215Z,102497.94
2022-12-18T11:39:30.213Z,102485.13
2022-12-18T11:42:55.226Z,102490.50
2022-12-18T11:46:12.415Z,102485.06
2022-12-18T11:49:34.385Z,102485.41
2022-12-18T11:52:55.982Z,102485.59
2022-12-18T11:56:19.707Z,102479.25
2022-12-18T11:59:48.311Z,102481.00
2022-12-18T12:03:16.372Z,102475.44
2022-12-18T12:06:51.538Z,102473.84
2022-12-18T12:10:31.297Z,102471.38
2022-12-18T12:14:04.478Z,102471.47
2022-12-18T12:17:33.242Z,102463.31
2022-12-18T12:21:00.250Z,102474.69
2022-12-18T12:24:39.696Z,102470.94
2022-12-18T12:28:09.309Z,102452.56
2022-12-18T12:31:35.027Z,102464.78
2022-12-18T12:35:19.304Z,102469.25
2022-12-18T12:38:28.166Z,102466.31
2022-12-18T12:41:45.229Z,102473.00
2022-12-18T12:45:00.291Z,102473.56
2022-12-18T12:48:19.075Z,102469.47
2022-12-18T12:51:34.295Z,102483.06
2022-12-18T12:54:51.278Z,102487.28
2022-12-18T12:58:16.406Z,102498.72
2022-12-18T13:01:48.429Z,102501.53
2022-12-18T13:05:05.538Z,102506.09
2022-12-18T13:08:35.945Z,102500.78
2022-12-18T13:11:43.386Z,102503.19
2022-12-18T13:14:58.290Z,102501.53
2022-12-18T13:18:24.322Z,102510.38
2022-12-18T13:21:30.066Z,102510.53
2022-12-18T13:24:45.302Z,102511.63
2022-12-18T13:28:06.142Z,102511.56
2022-12-18T13:32:01.359Z,102511.13
2022-12-18T13:35:23.093Z,102520.53
2022-12-18T13:38:42.322Z,102522.63
2022-12-18T13:41:46.754Z,102529.66
2022-12-18T13:45:01.383Z,102532.50
2022-12-18T13:48:17.619Z,102531.03
2022-12-18T13:51:28.258Z,102535.44
2022-12-18T13:54:47.274Z,102538.31
2022-12-18T13:57:49.241Z,102535.72
2022-12-18T14:01:04.399Z,102542.81
2022-12-18T14:04:11.151Z,102545.41
2022-12-18T14:07:41.857Z,102548.13
2022-12-18T14:10:58.302Z,102539.41
2022-12-18T14:14:08.139Z,102547.47
2022-12-18T14:17:23.293Z,102551.91
2022-12-18T14:20:33.931Z,102540.75
2022-12-18T14:23:47.282Z,102548.47
2022-12-18T14:27:14.074Z,102542.47
2022-12-18T14:30:35.318Z,102545.19
2022-12-18T14:33:50.286Z,102540.88
2022-12-18T14:37:00.449Z,102557.88
2022-12-18T14:40:20.269Z,102555.28
2022-12-18T14:43:32.273Z,102557.88
2022-12-18T14:46:44.346Z,102563.41
2022-12-18T14:49:59.305Z,102573.13
2022-12-18T14:53:07.354Z,102575.97
2022-12-18T14:56:27.303Z,102588.63
2022-12-18T14:59:30.562Z,102593.13
2022-12-18T15:02:45.542Z,102593.94
2022-12-18T15:05:48.211Z,102597.50
2022-12-18T15:09:28.462Z,102597.53
2022-12-18T15:12:55.387Z,102598.56
2022-12-18T15:16:10.378Z,102611.03
2022-12-18T15:19:18.469Z,102610.34
2022-12-18T15:22:31.000Z,102614.84
2022-12-18T15:25:45.479Z,102617.56
2022-12-18T15:28:57.600Z,102625.53
2022-12-18T15:32:20.434Z,102627.25
2022-12-18T15:35:32.353Z,102617.75
2022-12-18T15:38:41.347Z,102634.66
2022-12-18T15:41:50.451Z,102641.69
2022-12-18T15:44:59.001Z,102647.19
2022-12-18T15:48:07.414Z,102638.69
2022-12-18T15:51:30.411Z,102650.00
2022-12-18T15:54:39.020Z,102653.56
2022-12-18T15:57:53.357Z,102660.72
2022-12-18T16:00:57.222Z,102663.44
2022-12-18T16:04:12.359Z,102677.56
2022-12-18T16:07:30.542Z,102669.75
2022-12-18T16:10:39.358Z,102673.28
2022-12-18T16:13:54.363Z,102679.56
2022-12-18T16:17:13.447Z,102676.97
2022-12-18T16:20:18.506Z,102675.44
2022-12-18T16:23:33.367Z,102677.25
2022-12-18T16:26:41.350Z,102688.97
2022-12-18T16:29:53.337Z,102690.75
2022-12-18T16:33:02.313Z,102695.06
2022-12-18T16:36:11.077Z,102690.78
2022-12-18T16:39:19.337Z,102698.84
2022-12-18T16:42:34.397Z,102705.00
2022-12-18T16:45:42.963Z,102702.31
2022-12-18T16:48:51.394Z,102699.84
2022-12-18T16:52:00.245Z,102715.72
2022-12-18T16:55:08.418Z,102720.28
2022-12-18T16:58:17.014Z,102716.03
2022-12-18T17:01:33.509Z,102713.38
2022-12-18T17:04:35.381Z,102718.56
2022-12-18T17:07:57.403Z,102707.97
2022-12-18T17:11:16.448Z,102703.72
2022-12-18T17:14:25.127Z,102700.09
2022-12-18T17:17:33.390Z,102708.13
2022-12-18T17:20:42.590Z,102698.44
2022-12-18T17:23:57.373Z,102701.28
2022-12-18T17:27:05.430Z,102690.63
2022-12-18T17:30:20.426Z,102695.16
2022-12-18T17:33:23.742Z,102683.94
2022-12-18T17:36:39.394Z,102699.66
2022-12-18T17:39:47.914Z,102700.72
2022-12-18T17:42:59.406Z,102702.44
2022-12-18T17:46:14.471Z,102707.75
2022-12-18T17:49:23.338Z,102717.69
2022-12-18T17:52:31.403Z,102721.25
2022-12-18T17:55:40.055Z,102727.28
2022-12-18T17:58:55.461Z,102722.06
2022-12-18T18:02:10.587Z,102721.16
2022-12-18T18:05:19.390Z,102707.94
2022-12-18T18:08:42.457Z,102716.09
2022-12-18T18:11:52.407Z,102702.00
2022-12-18T18:15:09.468Z,102713.34
2022-12-18T18:18:18.043Z,102724.97
2022-12-18T18:21:35.460Z,102718.88
2022-12-18T18:24:45.513Z,102726.94
2022-12-18T18:28:02.430Z,102716.41
2022-12-18T18:31:06.618Z,102719.97
2022-12-18T18:34:25.427Z,102716.47
2022-12-18T18:37:27.197Z,102714.91
2022-12-18T18:40:42.390Z,102732.63
2022-12-18T18:43:44.693Z,102736.06
2022-12-18T18:47:03.594Z,102737.75
2022-12-18T18:50:21.418Z,102741.50
2022-12-18T18:53:23.509Z,102739.72
2022-12-18T18:57:40.096Z,102745.94
2022-12-18T19:00:01.194Z,102747.69
2022-12-18T19:03:16.438Z,102750.03
2022-12-18T19:06:22.282Z,102758.13
2022-12-18T19:09:44.398Z,102751.09
2022-12-18T19:12:53.102Z,102752.97
2022-12-18T19:16:09.530Z,102765.09
2022-12-18T19:19:18.390Z,102761.63
2022-12-18T19:22:27.843Z,102761.63
2022-12-18T19:25:45.519Z,102758.91
2022-12-18T19:28:54.061Z,102766.94
2022-12-18T19:32:03.473Z,102772.22
2022-12-18T19:35:12.026Z,102779.03
2022-12-18T19:38:20.434Z,102789.19
2022-12-18T19:41:37.680Z,102787.66
2022-12-18T19:44:53.580Z,102789.66
2022-12-18T19:48:06.541Z,102787.22
2022-12-18T19:51:25.460Z,102803.19
2022-12-18T19:54:33.418Z,102789.97
2022-12-18T19:57:48.535Z,102801.50
2022-12-18T20:00:50.300Z,102807.59
2022-12-18T20:04:06.507Z,102809.31
2022-12-18T20:07:14.735Z,102804.19
2022-12-18T20:10:29.478Z,102802.66
2022-12-18T20:13:31.252Z,102807.66
2022-12-18T20:16:47.576Z,102814.91
2022-12-18T20:19:49.508Z,102812.34
2022-12-18T20:23:04.428Z,102814.94
2022-12-18T20:26:06.258Z,102831.81
2022-12-18T20:29:24.570Z,102833.66
2022-12-18T20:32:39.511Z,102830.25
2022-12-18T20:35:48.123Z,102826.75
2022-12-18T20:39:00.438Z,102834.72
2022-12-18T20:42:16.466Z,102842.78
2022-12-18T20:45:25.117Z,102834.72
2022-12-18T20:48:34.454Z,102832.16
2022-12-18T20:51:43.486Z,102832.16
2022-12-18T20:54:51.501Z,102848.03
2022-12-18T20:58:00.442Z,102848.97
2022-12-18T21:01:15.834Z,102844.56
2022-12-18T21:04:30.498Z,102844.56
2022-12-18T21:07:38.911Z,102849.91
2022-12-18T21:10:53.445Z,102852.56
2022-12-18T21:13:57.501Z,102851.84
2022-12-18T21:17:12.658Z,102846.66
2022-12-18T21:20:22.478Z,102861.63
2022-12-18T21:23:31.183Z,102865.09
2022-12-18T21:26:46.481Z,102860.75
2022-12-18T21:29:48.659Z,102857.06
2022-12-18T21:33:05.623Z,102850.97
2022-12-18T21:36:07.917Z,102842.09
2022-12-18T21:39:23.561Z,102848.25
2022-12-18T21:42:25.709Z,102839.25
2022-12-18T21:45:40.537Z,102841.19
2022-12-18T21:48:42.506Z,102845.47
2022-12-18T21:52:02.534Z,102835.94
2022-12-18T21:55:11.535Z,102840.56
2022-12-18T21:58:20.049Z,102840.59
2022-12-18T22:01:33.419Z,102838.03
2022-12-18T22:04:46.705Z,102854.88
2022-12-18T22:07:55.553Z,102847.91
2022-12-18T22:11:04.467Z,102844.53
2022-12-18T22:14:13.495Z,102850.22
2022-12-18T22:17:28.498Z,102850.25
2022-12-18T22:20:38.286Z,102839.69
2022-12-18T22:24:00.482Z,102846.75
2022-12-18T22:27:02.630Z,102845.09
2022-12-18T22:30:18.965Z,102848.62
2022-12-18T22:33:20.935Z,102841.53
2022-12-18T22:36:45.657Z,102853.03
2022-12-18T22:39:47.635Z,102846.87
2022-12-18T22:43:02.803Z,102861.09
2022-12-18T22:46:16.145Z,102862.03
2022-12-18T22:49:32.514Z,102865.53
2022-12-18T22:52:49.621Z,102859.41
2022-12-18T22:55:57.490Z,102857.66
2022-12-18T22:59:13.588Z,102859.66
2022-12-18T23:02:15.510Z,102869.34
2022-12-18T23:05:30.654Z,102875.59
2022-12-18T23:08:39.052Z,102872.06
2022-12-18T23:11:54.546Z,102872.94
2022-12-18T23:14:56.486Z,102869.47
2022-12-18T23:18:11.552Z,102860.63
2022-12-18T23:21:22.538Z,102870.37
2022-12-18T23:24:37.547Z,102873.09
2022-12-18T23:27:45.547Z,102875.78
2022-12-18T23:31:09.532Z,102871.38
2022-12-18T23:34:27.569Z,102868.00
2022-12-18T23:37:58.643Z,102862.75
2022-12-18T23:41:04.626Z,102856.63
2022-12-18T23:44:20.569Z,102867.22
2022-12-18T23:47:22.373Z,102862.00
2022-12-18T23:50:40.515Z,102862.12
2022-12-18T23:53:43.075Z,102865.66
2022-12-18T23:56:57.513Z,102874.37
2022-12-18T23:59:59.535Z,102879.62
